Terminal Aerodrome Forecast
Issued by NWS Chicago, IL

Home | Current Version | Previous Version | Text Only | Print | Product List | Glossary On
Versions: 1 2 3 4 5 6 7 8 9 10 11 12 13 14 15 16 17 18 19 20 21 22 23 24 25
511
FTUS43 KLOT 192327
TAFRFD
TAF
KRFD 192327Z 2000/2024 16006KT P6SM SCT150 BKN250
     FM200200 12006KT P6SM BKN250
     FM200800 14008KT 3SM BR SCT003 BKN250
      TEMPO 2010/2014 1/2SM FG BKN003
     FM201600 15012KT 5SM BR FEW005 BKN015 OVC200
     FM202000 15015G25KT P6SM VCSH SCT035 BKN050 OVC150
      TEMPO 2022/2024 4SM -SHRA BR BKN015 OVC035=

USA.gov is the U.S. government's official web portal to all federal, state and local government web resources and services.